Time;durP1;ratioP1;P1;durP2;ratioP2;P2;SDS_P1;SDS_P2;PMS_P1;PMS_P2;Temp;Humidity;BMP_temperature;BMP_pressure;BME280_temperature;BME280_humidity;BME280_pressure;Samples;Min_cycle;Max_cycle;Signal;HPM_P1;HPM_P2
2021/12/10 00:01:39;;;;;;;24.93;22.07;;;;;;;;;;5136601;27;20251;-83
2021/12/10 00:04:09;;;;;;;29.97;16.27;;;;;;;;;;5136756;27;20267;-84
2021/12/10 00:06:39;;;;;;;27.77;18.20;;;;;;;;;;5136276;27;20238;-84
2021/12/10 00:09:10;;;;;;;23.97;21.43;;;;;;;;;;5136236;27;20287;-84
2021/12/10 00:11:41;;;;;;;19.33;15.90;;;;;;;;;;5136422;27;20219;-84
2021/12/10 00:14:09;;;;;;;23.93;16.23;;;;;;;;;;5136255;27;20203;-84
2021/12/10 00:16:40;;;;;;;23.30;18.23;;;;;;;;;;5135779;27;20200;-83
2021/12/10 00:19:20;;;;;;;24.40;19.97;;;;;;;;;;5135779;27;20238;-83
2021/12/10 00:21:49;;;;;;;22.40;13.77;;;;;;;;;;5136033;27;20284;-83
2021/12/10 00:24:21;;;;;;;24.00;17.37;;;;;;;;;;5135668;27;20223;-84
2021/12/10 00:26:49;;;;;;;23.03;14.40;;;;;;;;;;5136113;27;20230;-84
2021/12/10 00:29:18;;;;;;;24.87;18.43;;;;;;;;;;5135787;27;20206;-84
2021/12/10 00:31:51;;;;;;;27.17;21.17;;;;;;;;;;5135976;27;20195;-83
2021/12/10 00:34:22;;;;;;;23.97;18.47;;;;;;;;;;5135601;27;20206;-83
2021/12/10 00:36:54;;;;;;;23.23;18.53;;;;;;;;;;5135788;27;20217;-84
2021/12/10 00:39:25;;;;;;;26.47;19.40;;;;;;;;;;5135839;27;20206;-83
2021/12/10 00:41:56;;;;;;;23.60;18.20;;;;;;;;;;5135356;27;20231;-83
2021/12/10 00:44:25;;;;;;;21.67;17.20;;;;;;;;;;5135589;27;20203;-83
2021/12/10 00:46:55;;;;;;;19.90;16.50;;;;;;;;;;5135436;27;20196;-84
2021/12/10 00:49:24;;;;;;;25.73;11.23;;;;;;;;;;5135763;27;20192;-84
2021/12/10 00:51:53;;;;;;;13.43;10.97;;;;;;;;;;5135280;27;20192;-83
2021/12/10 00:54:21;;;;;;;21.93;17.37;;;;;;;;;;5135289;27;20196;-84
2021/12/10 00:56:50;;;;;;;20.93;17.07;;;;;;;;;;5135605;27;20223;-83
2021/12/10 00:59:20;;;;;;;18.83;14.40;;;;;;;;;;5134541;27;20211;-84
2021/12/10 01:01:49;;;;;;;21.67;16.07;;;;;;;;;;5135683;27;20235;-83
2021/12/10 01:04:21;;;;;;;19.53;13.20;;;;;;;;;;5134894;27;20219;-84
2021/12/10 01:06:50;;;;;;;23.73;16.97;;;;;;;;;;5135609;27;20184;-83
2021/12/10 01:09:20;;;;;;;22.33;20.03;;;;;;;;;;5135235;27;20199;-83
2021/12/10 01:11:51;;;;;;;23.57;18.27;;;;;;;;;;5135407;27;20191;-84
2021/12/10 01:14:30;;;;;;;27.63;21.77;;;;;;;;;;5128561;27;20219;-83
2021/12/10 01:25:33;;;;;;;25.23;22.67;;;;;;;;;;5135089;27;20283;-83
2021/12/10 01:28:02;;;;;;;28.63;23.87;;;;;;;;;;5135174;27;20204;-83
2021/12/10 01:30:32;;;;;;;25.10;21.63;;;;;;;;;;5134591;27;20238;-84
2021/12/10 01:33:02;;;;;;;26.83;23.67;;;;;;;;;;5134972;28;20282;-84
2021/12/10 01:35:33;;;;;;;27.50;20.53;;;;;;;;;;5135252;28;20263;-83
2021/12/10 01:38:02;;;;;;;27.50;24.43;;;;;;;;;;5134767;27;20231;-83
2021/12/10 01:40:31;;;;;;;30.47;27.10;;;;;;;;;;5134770;27;20196;-83
2021/12/10 01:43:06;;;;;;;30.47;24.60;;;;;;;;;;5135155;27;20207;-83
2021/12/10 01:45:36;;;;;;;22.80;16.90;;;;;;;;;;5134708;27;20207;-83
2021/12/10 01:48:06;;;;;;;26.67;23.93;;;;;;;;;;5135129;27;20298;-83
2021/12/10 01:50:36;;;;;;;28.30;19.93;;;;;;;;;;5134553;27;20203;-84
2021/12/10 01:53:07;;;;;;;25.70;22.53;;;;;;;;;;5134944;27;20219;-84
2021/12/10 01:55:37;;;;;;;33.47;20.97;;;;;;;;;;5134862;27;20251;-84
2021/12/10 01:58:06;;;;;;;17.53;15.57;;;;;;;;;;5134388;27;20245;-83
2021/12/10 02:00:37;;;;;;;26.97;20.17;;;;;;;;;;5134758;27;20238;-83
2021/12/10 02:03:06;;;;;;;26.60;20.80;;;;;;;;;;5134646;27;20223;-83
2021/12/10 02:05:35;;;;;;;26.13;21.47;;;;;;;;;;5134496;27;20198;-83
2021/12/10 02:08:04;;;;;;;28.13;23.50;;;;;;;;;;5134684;27;20236;-84
2021/12/10 02:10:33;;;;;;;24.87;20.47;;;;;;;;;;5136006;27;20227;-83
2021/12/10 02:13:01;;;;;;;26.77;21.93;;;;;;;;;;5138595;27;20272;-83
2021/12/10 02:15:30;;;;;;;22.70;20.10;;;;;;;;;;5138695;27;20252;-83
2021/12/10 02:17:59;;;;;;;23.30;17.73;;;;;;;;;;5138337;27;20231;-83
2021/12/10 02:20:29;;;;;;;25.07;16.23;;;;;;;;;;5138782;27;20203;-83
2021/12/10 02:22:59;;;;;;;27.70;24.03;;;;;;;;;;5138125;27;20255;-84
2021/12/10 02:25:28;;;;;;;24.40;16.53;;;;;;;;;;5138764;27;20225;-83
2021/12/10 02:27:57;;;;;;;25.43;14.67;;;;;;;;;;5138098;27;20196;-83
2021/12/10 02:30:26;;;;;;;20.33;14.00;;;;;;;;;;5138445;27;20199;-83
2021/12/10 02:32:55;;;;;;;14.23;12.17;;;;;;;;;;5138514;27;20222;-84
2021/12/10 02:35:24;;;;;;;9.57;6.60;;;;;;;;;;5138256;27;20250;-83
2021/12/10 02:37:52;;;;;;;14.30;10.67;;;;;;;;;;5138220;27;20232;-83
2021/12/10 02:40:23;;;;;;;21.87;11.90;;;;;;;;;;5138082;27;20231;-84
2021/12/10 02:42:52;;;;;;;19.33;14.80;;;;;;;;;;5137929;27;20204;-84
2021/12/10 02:45:21;;;;;;;17.23;13.70;;;;;;;;;;5137900;27;20240;-84
2021/12/10 02:47:50;;;;;;;21.43;17.40;;;;;;;;;;5138169;27;20646;-84
2021/12/10 02:50:21;;;;;;;15.37;9.63;;;;;;;;;;5138179;27;20234;-83
2021/12/10 02:52:49;;;;;;;13.87;11.50;;;;;;;;;;5137755;27;20223;-83
2021/12/10 02:55:18;;;;;;;8.13;5.67;;;;;;;;;;5138006;27;20231;-83
2021/12/10 02:57:49;;;;;;;10.30;8.87;;;;;;;;;;5137518;27;20210;-84
2021/12/10 03:00:20;;;;;;;15.43;10.80;;;;;;;;;;5137606;27;20223;-84
2021/12/10 03:02:48;;;;;;;11.07;8.23;;;;;;;;;;5137683;27;20244;-83
2021/12/10 03:05:17;;;;;;;4.97;4.53;;;;;;;;;;5137958;27;20221;-84
2021/12/10 03:07:45;;;;;;;28.37;4.17;;;;;;;;;;5137439;27;20290;-84
2021/12/10 03:10:17;;;;;;;5.23;4.23;;;;;;;;;;5137601;27;20203;-83
2021/12/10 03:12:45;;;;;;;13.63;7.13;;;;;;;;;;5137419;27;20278;-83
2021/12/10 03:15:16;;;;;;;11.63;6.20;;;;;;;;;;5137418;27;20203;-83
2021/12/10 03:17:44;;;;;;;17.70;5.10;;;;;;;;;;5137496;27;20261;-83
2021/12/10 03:20:15;;;;;;;4.13;3.73;;;;;;;;;;5137209;27;20251;-84
2021/12/10 03:22:43;;;;;;;8.23;5.27;;;;;;;;;;5136813;27;20237;-84
2021/12/10 03:25:13;;;;;;;5.73;4.23;;;;;;;;;;5137228;27;20278;-84
2021/12/10 03:27:42;;;;;;;8.07;6.17;;;;;;;;;;5137289;27;20196;-83
2021/12/10 03:30:11;;;;;;;11.70;7.73;;;;;;;;;;5137402;27;20249;-84
2021/12/10 03:32:41;;;;;;;16.13;6.70;;;;;;;;;;5137142;27;20211;-83
2021/12/10 03:35:13;;;;;;;6.83;4.83;;;;;;;;;;5137167;27;20200;-83
2021/12/10 03:37:42;;;;;;;5.87;4.57;;;;;;;;;;5136875;27;20226;-83
2021/12/10 03:40:12;;;;;;;11.07;6.50;;;;;;;;;;5137021;27;20207;-84
2021/12/10 03:42:41;;;;;;;10.27;8.67;;;;;;;;;;5137242;27;20276;-84
2021/12/10 03:45:10;;;;;;;10.60;6.10;;;;;;;;;;5136692;27;20260;-83
2021/12/10 03:47:38;;;;;;;9.30;4.67;;;;;;;;;;5137171;27;20204;-83
2021/12/10 03:50:09;;;;;;;9.03;6.27;;;;;;;;;;5136588;27;20207;-84
2021/12/10 03:52:37;;;;;;;4.43;3.87;;;;;;;;;;5136753;27;20199;-84
2021/12/10 03:55:07;;;;;;;3.93;2.70;;;;;;;;;;5136447;27;20234;-84
2021/12/10 03:57:35;;;;;;;7.27;4.40;;;;;;;;;;5136596;27;20233;-84
2021/12/10 04:00:06;;;;;;;6.37;5.03;;;;;;;;;;5136973;27;20180;-83
2021/12/10 04:02:34;;;;;;;10.67;3.40;;;;;;;;;;5136476;27;20240;-84
2021/12/10 04:05:03;;;;;;;6.43;4.70;;;;;;;;;;5136321;27;20195;-83
2021/12/10 04:07:33;;;;;;;6.80;4.27;;;;;;;;;;5136161;27;20217;-83
2021/12/10 04:10:02;;;;;;;8.00;4.70;;;;;;;;;;5136374;27;20230;-84
2021/12/10 04:12:30;;;;;;;1.90;1.50;;;;;;;;;;5135810;27;20232;-83
2021/12/10 04:14:59;;;;;;;6.53;4.77;;;;;;;;;;5136175;27;20252;-84
2021/12/10 04:17:28;;;;;;;1.33;1.27;;;;;;;;;;5134654;27;20200;-83
2021/12/10 04:19:57;;;;;;;10.00;3.53;;;;;;;;;;5136546;27;20192;-83
2021/12/10 04:22:32;;;;;;;5.17;3.67;;;;;;;;;;5135846;27;20251;-83
2021/12/10 04:25:02;;;;;;;6.33;4.40;;;;;;;;;;5136110;27;20226;-84
2021/12/10 04:27:30;;;;;;;7.80;2.83;;;;;;;;;;5135655;27;20238;-84
2021/12/10 04:29:59;;;;;;;9.37;5.70;;;;;;;;;;5135958;27;20203;-83
2021/12/10 04:32:28;;;;;;;4.60;3.77;;;;;;;;;;5135757;27;20248;-83
2021/12/10 04:34:57;;;;;;;8.90;4.17;;;;;;;;;;5134864;27;20617;-84
2021/12/10 04:37:25;;;;;;;2.87;2.60;;;;;;;;;;5135622;27;20239;-83
2021/12/10 04:39:53;;;;;;;3.60;2.60;;;;;;;;;;5135814;27;20231;-84
2021/12/10 04:42:26;;;;;;;4.13;2.93;;;;;;;;;;5135398;27;20250;-83
2021/12/10 04:44:55;;;;;;;7.13;3.97;;;;;;;;;;5135715;27;20203;-84
2021/12/10 04:47:23;;;;;;;10.07;5.27;;;;;;;;;;5135769;27;20231;-83
2021/12/10 04:49:52;;;;;;;5.73;3.80;;;;;;;;;;5135610;27;20195;-84
2021/12/10 04:52:20;;;;;;;7.00;4.60;;;;;;;;;;5135734;27;20213;-84
2021/12/10 04:54:49;;;;;;;3.50;2.70;;;;;;;;;;5135433;27;20199;-84
2021/12/10 04:57:18;;;;;;;7.30;3.37;;;;;;;;;;5135893;27;20227;-84
2021/12/10 04:59:48;;;;;;;4.93;2.87;;;;;;;;;;5135087;27;20207;-84
2021/12/10 05:02:18;;;;;;;6.47;3.67;;;;;;;;;;5135441;27;20203;-84
2021/12/10 05:04:47;;;;;;;5.40;1.67;;;;;;;;;;5135331;27;20276;-84
2021/12/10 05:07:17;;;;;;;8.63;4.30;;;;;;;;;;5135565;27;20229;-84
2021/12/10 05:09:45;;;;;;;3.93;2.10;;;;;;;;;;5135328;27;20231;-83
2021/12/10 05:12:13;;;;;;;7.57;4.87;;;;;;;;;;5135390;27;20283;-83
2021/12/10 05:14:42;;;;;;;10.80;4.63;;;;;;;;;;5135395;27;20231;-84
2021/12/10 05:17:12;;;;;;;3.53;2.07;;;;;;;;;;5134856;27;20231;-83
2021/12/10 05:19:42;;;;;;;7.50;4.30;;;;;;;;;;5135369;27;20223;-83
2021/12/10 05:22:11;;;;;;;4.03;3.50;;;;;;;;;;5134937;27;20228;-84
2021/12/10 05:24:40;;;;;;;6.03;4.40;;;;;;;;;;5135009;27;20268;-83
2021/12/10 05:27:10;;;;;;;3.07;2.30;;;;;;;;;;5135122;27;20221;-84
2021/12/10 05:29:38;;;;;;;2.97;2.20;;;;;;;;;;5135394;27;20184;-83
2021/12/10 05:32:07;;;;;;;5.23;2.80;;;;;;;;;;5134909;27;20231;-83
2021/12/10 05:34:40;;;;;;;6.13;3.10;;;;;;;;;;5134955;27;20203;-84
2021/12/10 05:37:08;;;;;;;3.63;2.60;;;;;;;;;;5135139;27;20188;-84
2021/12/10 05:39:37;;;;;;;3.77;2.47;;;;;;;;;;5135110;27;20278;-84
2021/12/10 05:42:06;;;;;;;6.43;3.80;;;;;;;;;;5135238;27;20203;-84
2021/12/10 05:44:34;;;;;;;4.23;2.77;;;;;;;;;;5134629;27;20276;-84
2021/12/10 05:47:04;;;;;;;8.00;4.10;;;;;;;;;;5139276;27;20479;-83
2021/12/10 05:49:33;;;;;;;3.33;2.67;;;;;;;;;;5139735;27;20183;-84
2021/12/10 05:52:04;;;;;;;7.03;2.97;;;;;;;;;;5139098;27;20223;-83
2021/12/10 05:54:32;;;;;;;5.83;3.30;;;;;;;;;;5138973;27;20191;-83
2021/12/10 05:57:01;;;;;;;3.97;3.27;;;;;;;;;;5138992;27;20243;-83
2021/12/10 05:59:30;;;;;;;4.37;3.73;;;;;;;;;;5139111;27;20199;-84
2021/12/10 06:01:59;;;;;;;4.53;3.83;;;;;;;;;;5139056;27;20206;-83
2021/12/10 06:04:29;;;;;;;4.70;2.27;;;;;;;;;;5138840;27;20286;-83
2021/12/10 06:06:57;;;;;;;6.23;3.70;;;;;;;;;;5139188;27;20192;-84
2021/12/10 06:09:28;;;;;;;2.90;2.40;;;;;;;;;;5139086;27;20223;-84
2021/12/10 06:11:57;;;;;;;4.33;2.90;;;;;;;;;;5138981;27;20196;-84
2021/12/10 06:14:25;;;;;;;3.33;2.83;;;;;;;;;;5138582;27;20310;-83
2021/12/10 06:16:56;;;;;;;7.20;3.23;;;;;;;;;;5138905;27;20245;-83
2021/12/10 06:19:25;;;;;;;3.37;1.77;;;;;;;;;;5137947;27;20318;-83
2021/12/10 06:21:54;;;;;;;7.13;4.17;;;;;;;;;;5138780;27;20211;-83
2021/12/10 06:24:23;;;;;;;3.20;2.90;;;;;;;;;;5137953;27;20220;-84
2021/12/10 06:26:53;;;;;;;2.07;1.97;;;;;;;;;;5138496;27;20279;-83
2021/12/10 06:29:24;;;;;;;3.67;2.97;;;;;;;;;;5138527;27;20207;-84
2021/12/10 06:31:53;;;;;;;4.57;2.13;;;;;;;;;;5138305;27;20190;-83
2021/12/10 06:34:21;;;;;;;1.60;1.50;;;;;;;;;;5138328;27;20203;-83
2021/12/10 06:36:50;;;;;;;2.37;2.10;;;;;;;;;;5138511;27;20204;-84
2021/12/10 06:39:20;;;;;;;7.47;2.60;;;;;;;;;;5138223;27;20225;-83
2021/12/10 06:41:49;;;;;;;3.27;2.30;;;;;;;;;;5138429;27;20195;-83
2021/12/10 06:44:19;;;;;;;4.43;2.80;;;;;;;;;;5137783;27;20226;-83
2021/12/10 06:46:48;;;;;;;3.00;2.60;;;;;;;;;;5137959;27;20200;-84
2021/12/10 06:49:18;;;;;;;5.77;3.20;;;;;;;;;;5137814;27;20256;-83
2021/12/10 06:51:46;;;;;;;4.60;4.03;;;;;;;;;;5137905;27;20227;-83
2021/12/10 06:54:15;;;;;;;2.57;1.73;;;;;;;;;;5138056;27;20188;-83
2021/12/10 06:56:44;;;;;;;3.63;2.83;;;;;;;;;;5136536;27;20264;-83
2021/12/10 06:59:12;;;;;;;4.70;2.73;;;;;;;;;;5137440;27;20208;-83
2021/12/10 07:01:43;;;;;;;9.40;3.30;;;;;;;;;;5137772;27;20259;-84
2021/12/10 07:04:13;;;;;;;4.60;3.43;;;;;;;;;;5137482;27;20232;-81
2021/12/10 07:06:46;;;;;;;4.53;2.10;;;;;;;;;;5137628;27;20225;-83
2021/12/10 07:09:16;;;;;;;2.73;2.53;;;;;;;;;;5137269;27;20253;-83
2021/12/10 07:11:45;;;;;;;6.57;3.00;;;;;;;;;;5137177;27;20208;-83
2021/12/10 07:14:13;;;;;;;8.33;2.67;;;;;;;;;;5137487;27;20203;-82
2021/12/10 07:16:44;;;;;;;2.10;1.90;;;;;;;;;;5137160;27;20256;-81
2021/12/10 07:19:13;;;;;;;6.77;2.20;;;;;;;;;;5136982;27;20285;-82
2021/12/10 07:21:45;;;;;;;7.17;2.23;;;;;;;;;;5137329;27;20271;-82
2021/12/10 07:24:15;;;;;;;4.37;3.07;;;;;;;;;;5136781;27;20254;-82
2021/12/10 07:26:44;;;;;;;6.47;1.63;;;;;;;;;;5137118;27;20334;-82
2021/12/10 07:29:12;;;;;;;3.10;1.63;;;;;;;;;;5136987;27;20265;-82
2021/12/10 07:31:42;;;;;;;2.87;2.10;;;;;;;;;;5136879;27;20204;-82
2021/12/10 07:34:12;;;;;;;2.27;2.07;;;;;;;;;;5137279;27;20203;-82
2021/12/10 07:36:41;;;;;;;6.27;2.80;;;;;;;;;;5136725;27;20211;-82
2021/12/10 07:39:10;;;;;;;3.60;2.27;;;;;;;;;;5136876;27;20199;-82
2021/12/10 07:41:40;;;;;;;3.63;2.63;;;;;;;;;;5136728;27;20196;-82
2021/12/10 07:44:09;;;;;;;3.43;2.87;;;;;;;;;;5136748;27;20227;-83
2021/12/10 07:46:39;;;;;;;4.90;2.93;;;;;;;;;;5136718;27;20192;-82
2021/12/10 07:49:14;;;;;;;2.30;2.10;;;;;;;;;;5136704;27;20191;-84
2021/12/10 07:51:49;;;;;;;2.63;2.43;;;;;;;;;;5136567;27;20255;-83
2021/12/10 07:54:20;;;;;;;5.10;3.73;;;;;;;;;;5136434;27;20219;-84
2021/12/10 07:56:53;;;;;;;5.33;3.43;;;;;;;;;;5136519;27;20223;-83
2021/12/10 07:59:21;;;;;;;4.23;3.43;;;;;;;;;;5136814;27;20212;-83
2021/12/10 08:01:52;;;;;;;3.70;3.27;;;;;;;;;;5136603;27;20203;-83
2021/12/10 08:04:21;;;;;;;5.00;2.87;;;;;;;;;;5136240;27;20231;-83
2021/12/10 08:06:51;;;;;;;9.00;3.50;;;;;;;;;;5136199;27;20238;-83
2021/12/10 08:09:19;;;;;;;4.03;2.53;;;;;;;;;;5136223;27;20221;-83
2021/12/10 08:11:48;;;;;;;4.60;3.87;;;;;;;;;;5136512;27;20204;-83
2021/12/10 08:14:16;;;;;;;5.70;3.73;;;;;;;;;;5130271;27;20200;-82
2021/12/10 08:16:45;;;;;;;6.63;5.37;;;;;;;;;;5131959;27;20287;-83
2021/12/10 08:19:14;;;;;;;7.90;4.13;;;;;;;;;;5129205;27;20268;-83
2021/12/10 08:21:43;;;;;;;4.63;2.53;;;;;;;;;;5132096;27;20309;-84
2021/12/10 08:24:13;;;;;;;2.90;2.60;;;;;;;;;;5120713;27;20240;-84
2021/12/10 08:26:42;;;;;;;4.03;3.70;;;;;;;;;;5135617;27;20195;-84
2021/12/10 08:29:15;;;;;;;3.73;1.70;;;;;;;;;;5135997;27;20221;-84
2021/12/10 08:31:46;;;;;;;3.47;3.17;;;;;;;;;;5136033;27;20289;-85
2021/12/10 08:34:15;;;;;;;6.43;2.60;;;;;;;;;;5115268;27;20246;-85
2021/12/10 08:36:43;;;;;;;8.73;3.60;;;;;;;;;;5124551;27;20199;-84
2021/12/10 08:39:12;;;;;;;2.13;2.00;;;;;;;;;;5129682;27;20204;-84
2021/12/10 08:41:45;;;;;;;3.63;2.53;;;;;;;;;;5121059;27;20196;-85
2021/12/10 08:44:14;;;;;;;6.10;4.67;;;;;;;;;;5133539;27;20206;-84
2021/12/10 08:46:44;;;;;;;6.40;3.57;;;;;;;;;;5131494;27;20234;-83
2021/12/10 08:49:14;;;;;;;3.70;2.37;;;;;;;;;;5119710;27;20203;-85
2021/12/10 08:51:44;;;;;;;9.23;2.43;;;;;;;;;;5118022;27;20203;-84
2021/12/10 08:54:14;;;;;;;2.80;2.50;;;;;;;;;;5119212;27;20260;-84
2021/12/10 08:56:44;;;;;;;1.87;1.77;;;;;;;;;;5132162;27;20211;-83
2021/12/10 08:59:13;;;;;;;3.20;2.80;;;;;;;;;;5133256;27;20215;-83
2021/12/10 09:01:43;;;;;;;2.90;2.40;;;;;;;;;;5123875;27;20208;-84
2021/12/10 09:04:12;;;;;;;7.23;3.57;;;;;;;;;;5122979;27;20224;-85
2021/12/10 09:06:42;;;;;;;4.70;3.17;;;;;;;;;;5115639;27;20223;-83
2021/12/10 09:09:11;;;;;;;2.60;2.47;;;;;;;;;;5119524;27;20204;-83
2021/12/10 09:11:40;;;;;;;3.83;2.47;;;;;;;;;;5120049;27;20224;-83
2021/12/10 09:14:21;;;;;;;7.30;3.30;;;;;;;;;;5115061;27;20192;-83
2021/12/10 09:16:53;;;;;;;5.07;3.63;;;;;;;;;;5121138;27;20208;-83
2021/12/10 09:19:21;;;;;;;4.77;2.13;;;;;;;;;;5118130;27;22030;-82
2021/12/10 09:21:51;;;;;;;2.10;1.40;;;;;;;;;;5123477;27;20228;-83
2021/12/10 09:24:21;;;;;;;6.37;3.17;;;;;;;;;;5122126;27;20211;-82
2021/12/10 09:26:53;;;;;;;7.43;3.73;;;;;;;;;;5121540;27;20261;-82
2021/12/10 09:29:24;;;;;;;1.63;1.53;;;;;;;;;;5126196;27;20222;-83
2021/12/10 09:31:53;;;;;;;2.97;2.27;;;;;;;;;;5124338;27;20833;-82
2021/12/10 09:34:22;;;;;;;1.83;1.73;;;;;;;;;;5123987;27;20294;-83
2021/12/10 09:36:51;;;;;;;3.50;2.73;;;;;;;;;;5123212;27;20241;-83
2021/12/10 09:39:21;;;;;;;4.93;2.93;;;;;;;;;;5121845;28;20235;-84
2021/12/10 09:41:53;;;;;;;3.07;2.73;;;;;;;;;;5116018;28;20201;-82
2021/12/10 09:44:22;;;;;;;4.13;2.87;;;;;;;;;;5121252;28;20204;-83
2021/12/10 09:46:52;;;;;;;2.60;1.67;;;;;;;;;;5120622;27;20220;-83
2021/12/10 09:49:23;;;;;;;2.37;2.23;;;;;;;;;;5118795;28;20196;-83
2021/12/10 09:51:54;;;;;;;3.57;2.43;;;;;;;;;;5125840;27;20197;-83
2021/12/10 09:54:24;;;;;;;4.37;3.37;;;;;;;;;;5119972;28;20212;-83
2021/12/10 09:56:53;;;;;;;6.00;2.97;;;;;;;;;;5119343;28;20204;-84
2021/12/10 09:59:22;;;;;;;3.07;2.73;;;;;;;;;;5120643;27;20204;-84
2021/12/10 10:01:54;;;;;;;4.23;3.80;;;;;;;;;;5120011;28;20211;-84
2021/12/10 10:04:26;;;;;;;2.13;2.03;;;;;;;;;;5120290;28;20219;-82
2021/12/10 10:06:55;;;;;;;3.73;1.67;;;;;;;;;;5114156;28;21410;-84
2021/12/10 10:09:25;;;;;;;12.87;9.43;;;;;;;;;;5124060;28;20200;-83
2021/12/10 10:11:55;;;;;;;4.43;3.10;;;;;;;;;;5124644;28;20299;-83
2021/12/10 10:14:32;;;;;;;7.03;4.13;;;;;;;;;;5120029;28;20238;-83
2021/12/10 10:17:02;;;;;;;7.00;3.57;;;;;;;;;;5123592;28;20208;-83
2021/12/10 10:19:31;;;;;;;3.83;3.53;;;;;;;;;;5119004;28;20253;-84
2021/12/10 10:22:00;;;;;;;5.07;4.57;;;;;;;;;;5118274;28;20310;-85
2021/12/10 10:24:29;;;;;;;1.70;1.60;;;;;;;;;;5116592;28;20212;-84
2021/12/10 10:26:59;;;;;;;2.40;1.80;;;;;;;;;;5122724;28;20275;-83
2021/12/10 10:29:33;;;;;;;4.13;3.73;;;;;;;;;;5128484;28;20196;-83
2021/12/10 10:32:09;;;;;;;2.97;2.57;;;;;;;;;;5125189;27;20207;-83
2021/12/10 10:34:38;;;;;;;2.13;2.03;;;;;;;;;;5119624;27;20208;-83
2021/12/10 10:37:07;;;;;;;2.83;1.57;;;;;;;;;;5124728;27;20260;-83
2021/12/10 10:39:36;;;;;;;3.53;3.20;;;;;;;;;;5124649;27;20291;-84
2021/12/10 10:42:06;;;;;;;5.10;2.63;;;;;;;;;;5129187;27;20208;-83
2021/12/10 10:44:55;;;;;;;4.67;3.13;;;;;;;;;;5123829;27;20208;-83
2021/12/10 10:47:26;;;;;;;1.40;1.30;;;;;;;;;;5121126;27;20219;-83
2021/12/10 10:49:56;;;;;;;2.37;2.17;;;;;;;;;;5118995;27;20207;-83
2021/12/10 10:52:28;;;;;;;3.33;1.83;;;;;;;;;;5126402;27;20207;-84
2021/12/10 10:54:59;;;;;;;3.63;2.10;;;;;;;;;;5121506;27;20219;-82
2021/12/10 10:57:29;;;;;;;3.20;2.93;;;;;;;;;;5124590;27;20204;-83
2021/12/10 11:00:02;;;;;;;3.93;2.53;;;;;;;;;;5127039;27;20218;-83
2021/12/10 11:02:49;;;;;;;6.10;4.07;;;;;;;;;;5130996;27;20196;-83
2021/12/10 11:05:18;;;;;;;4.70;3.00;;;;;;;;;;5126209;27;20242;-84
2021/12/10 11:07:49;;;;;;;3.43;3.13;;;;;;;;;;5121499;27;20234;-83
2021/12/10 11:10:25;;;;;;;4.33;2.57;;;;;;;;;;5123846;27;20284;-82
2021/12/10 11:12:53;;;;;;;13.13;5.73;;;;;;;;;;5120899;27;20231;-83
2021/12/10 11:15:22;;;;;;;10.27;4.03;;;;;;;;;;5125596;27;20212;-85
2021/12/10 11:17:55;;;;;;;11.57;4.43;;;;;;;;;;5123340;27;20239;-85
2021/12/10 11:20:26;;;;;;;1.40;1.33;;;;;;;;;;5123059;27;20203;-84
2021/12/10 11:22:56;;;;;;;3.40;3.10;;;;;;;;;;5121762;27;20252;-84
2021/12/10 11:25:28;;;;;;;4.57;3.40;;;;;;;;;;5124406;27;20207;-84
2021/12/10 11:28:07;;;;;;;2.80;2.60;;;;;;;;;;5120860;27;20231;-84
2021/12/10 11:30:35;;;;;;;2.10;1.97;;;;;;;;;;5117579;27;20204;-85
2021/12/10 11:33:11;;;;;;;11.33;2.40;;;;;;;;;;5130661;27;20210;-84
2021/12/10 11:35:40;;;;;;;1.80;1.70;;;;;;;;;;5122494;27;20215;-84
2021/12/10 11:38:10;;;;;;;2.90;2.70;;;;;;;;;;5126415;27;20212;-84
2021/12/10 11:40:46;;;;;;;3.43;3.17;;;;;;;;;;5127794;27;20208;-83
2021/12/10 11:43:33;;;;;;;5.00;3.70;;;;;;;;;;5125008;27;20195;-85
2021/12/10 11:46:27;;;;;;;2.13;1.93;;;;;;;;;;5125940;27;20207;-85
2021/12/10 11:49:02;;;;;;;2.10;2.00;;;;;;;;;;5120689;27;20211;-84
2021/12/10 11:51:32;;;;;;;1.67;1.60;;;;;;;;;;5119803;27;20216;-84
2021/12/10 11:54:08;;;;;;;1.67;1.57;;;;;;;;;;5124649;27;20220;-86
2021/12/10 11:56:37;;;;;;;7.83;3.60;;;;;;;;;;5119952;27;20230;-85
2021/12/10 11:59:11;;;;;;;5.10;4.40;;;;;;;;;;5126708;27;20273;-85
2021/12/10 12:01:48;;;;;;;4.43;2.67;;;;;;;;;;5129601;27;20204;-85
2021/12/10 12:04:25;;;;;;;3.27;2.80;;;;;;;;;;5119183;27;20228;-86
2021/12/10 12:07:08;;;;;;;2.27;2.10;;;;;;;;;;5126496;27;20223;-84
2021/12/10 12:09:39;;;;;;;1.47;1.47;;;;;;;;;;5128940;27;20206;-86
2021/12/10 12:12:09;;;;;;;3.67;2.90;;;;;;;;;;5124443;27;20218;-85
2021/12/10 12:14:48;;;;;;;1.07;1.07;;;;;;;;;;5124580;27;20208;-86
2021/12/10 12:17:29;;;;;;;4.97;3.47;;;;;;;;;;5131550;27;20209;-86
2021/12/10 12:19:59;;;;;;;2.57;2.47;;;;;;;;;;5131871;27;20207;-84
2021/12/10 12:25:27;;;;;;;2.70;2.50;;;;;;;;;;5128299;27;20207;-86
2021/12/10 12:28:03;;;;;;;1.73;1.63;;;;;;;;;;5118382;27;20220;-85
2021/12/10 12:31:04;;;;;;;3.93;3.63;;;;;;;;;;5126236;27;20204;-86
2021/12/10 12:33:57;;;;;;;1.90;1.80;;;;;;;;;;5125484;27;20200;-84
2021/12/10 12:36:28;;;;;;;1.40;1.33;;;;;;;;;;5129537;27;20208;-85
2021/12/10 12:38:58;;;;;;;2.53;2.43;;;;;;;;;;5123332;27;20698;-86
2021/12/10 12:41:36;;;;;;;3.60;3.07;;;;;;;;;;5123778;27;20231;-87
2021/12/10 12:44:24;;;;;;;1.30;1.30;;;;;;;;;;5119624;27;20214;-85
2021/12/10 12:47:15;;;;;;;4.80;4.27;;;;;;;;;;5122902;27;20225;-85
2021/12/10 12:50:01;;;;;;;2.10;1.93;;;;;;;;;;5120739;27;20306;-83
2021/12/10 12:52:41;;;;;;;8.03;4.77;;;;;;;;;;5121128;27;20249;-87
2021/12/10 12:55:22;;;;;;;3.00;2.67;;;;;;;;;;5118012;27;20199;-86
2021/12/10 12:57:58;;;;;;;1.67;1.57;;;;;;;;;;5121616;27;20221;-86
2021/12/10 13:00:48;;;;;;;1.27;1.27;;;;;;;;;;5118360;27;20204;-87
2021/12/10 13:03:19;;;;;;;3.83;2.53;;;;;;;;;;5120666;27;20227;-87
2021/12/10 13:05:56;;;;;;;1.00;1.00;;;;;;;;;;5119270;27;20208;-86
2021/12/10 13:08:36;;;;;;;0.80;0.80;;;;;;;;;;5118190;27;20222;-87
2021/12/10 13:11:19;;;;;;;1.10;1.10;;;;;;;;;;5122648;27;20257;-87
2021/12/10 13:13:51;;;;;;;1.70;1.60;;;;;;;;;;5119711;27;20204;-87
2021/12/10 13:16:32;;;;;;;9.00;2.50;;;;;;;;;;5125280;27;20251;-86
2021/12/10 13:19:01;;;;;;;26.13;4.73;;;;;;;;;;5116633;27;20236;-87
2021/12/10 13:21:54;;;;;;;1.20;1.20;;;;;;;;;;5124596;27;20199;-85
2021/12/10 13:24:24;;;;;;;2.83;2.17;;;;;;;;;;5122123;27;20196;-85
2021/12/10 13:26:56;;;;;;;2.00;1.90;;;;;;;;;;5118544;27;20231;-86
2021/12/10 13:29:24;;;;;;;1.63;1.63;;;;;;;;;;5121649;27;20227;-86
2021/12/10 13:31:53;;;;;;;13.83;5.20;;;;;;;;;;5122493;27;20206;-85
2021/12/10 13:34:22;;;;;;;1.20;1.20;;;;;;;;;;5122747;27;20204;-84
2021/12/10 13:36:51;;;;;;;1.20;1.20;;;;;;;;;;5118050;27;20208;-86
2021/12/10 13:39:21;;;;;;;7.33;4.40;;;;;;;;;;5117589;28;20316;-84
2021/12/10 13:41:53;;;;;;;2.73;2.53;;;;;;;;;;5120164;28;20208;-84
2021/12/10 13:44:32;;;;;;;2.57;2.40;;;;;;;;;;5122263;28;20216;-84
2021/12/10 13:47:02;;;;;;;1.93;1.77;;;;;;;;;;5123474;27;20199;-84
2021/12/10 13:49:45;;;;;;;2.63;2.50;;;;;;;;;;5119970;28;20200;-85
2021/12/10 13:52:14;;;;;;;1.27;1.27;;;;;;;;;;5113577;28;20203;-84
2021/12/10 13:54:44;;;;;;;0.90;0.90;;;;;;;;;;5130887;28;20204;-84
2021/12/10 13:57:14;;;;;;;4.93;3.40;;;;;;;;;;5118804;28;20236;-84
2021/12/10 13:59:42;;;;;;;3.70;3.03;;;;;;;;;;5122443;27;20218;-84
2021/12/10 14:02:13;;;;;;;2.67;2.17;;;;;;;;;;5119601;28;20265;-83
2021/12/10 14:04:44;;;;;;;1.73;1.73;;;;;;;;;;5121224;28;20215;-83
2021/12/10 14:07:16;;;;;;;1.10;1.10;;;;;;;;;;5124690;27;20203;-84
2021/12/10 14:09:50;;;;;;;12.53;4.67;;;;;;;;;;5123668;27;20222;-82
2021/12/10 14:12:28;;;;;;;2.23;2.07;;;;;;;;;;5124915;27;20214;-83
2021/12/10 14:15:03;;;;;;;2.93;2.60;;;;;;;;;;5124016;27;20285;-84
2021/12/10 14:17:33;;;;;;;1.40;1.40;;;;;;;;;;5130821;27;20230;-84
2021/12/10 14:20:26;;;;;;;2.83;1.80;;;;;;;;;;5130288;27;20247;-84
2021/12/10 14:23:18;;;;;;;1.47;1.37;;;;;;;;;;5127370;27;20200;-82
2021/12/10 14:26:08;;;;;;;2.00;1.90;;;;;;;;;;5126822;27;20212;-85
2021/12/10 14:29:02;;;;;;;2.77;2.47;;;;;;;;;;5125115;27;20220;-84
2021/12/10 14:31:52;;;;;;;1.17;1.17;;;;;;;;;;5126620;27;20236;-83
2021/12/10 14:34:23;;;;;;;1.07;1.07;;;;;;;;;;5127972;27;20254;-84
2021/12/10 14:36:59;;;;;;;5.20;2.23;;;;;;;;;;5126440;27;20211;-84
2021/12/10 14:39:32;;;;;;;2.50;2.40;;;;;;;;;;5115626;28;20318;-84
2021/12/10 14:42:20;;;;;;;2.07;1.97;;;;;;;;;;5118126;27;20353;-83
2021/12/10 14:45:02;;;;;;;1.00;1.00;;;;;;;;;;5125376;27;20203;-83
2021/12/10 14:47:31;;;;;;;0.80;0.80;;;;;;;;;;5127924;27;20235;-84
2021/12/10 14:50:19;;;;;;;0.80;0.80;;;;;;;;;;5127516;27;20235;-83
2021/12/10 14:53:24;;;;;;;0.93;0.93;;;;;;;;;;5125439;27;20276;-84
2021/12/10 14:56:17;;;;;;;1.03;1.03;;;;;;;;;;5125805;27;20238;-83
2021/12/10 14:59:07;;;;;;;3.00;2.03;;;;;;;;;;5126036;27;20207;-84
2021/12/10 15:02:06;;;;;;;2.23;2.13;;;;;;;;;;5128948;27;20235;-84
2021/12/10 15:05:05;;;;;;;2.67;2.47;;;;;;;;;;5121500;27;20234;-84
2021/12/10 15:07:54;;;;;;;2.20;2.07;;;;;;;;;;5117196;27;20226;-84
2021/12/10 15:10:44;;;;;;;4.00;1.27;;;;;;;;;;5118835;27;20207;-85
2021/12/10 15:13:37;;;;;;;1.53;1.50;;;;;;;;;;5123129;27;20205;-83
2021/12/10 15:16:27;;;;;;;1.13;1.13;;;;;;;;;;5129543;27;20204;-84
2021/12/10 15:19:12;;;;;;;2.80;2.60;;;;;;;;;;5122457;27;20315;-84